PWSweather.com
Personal Weather Stations
Station Observations
MENWDWX1
Menstrie, ScotlandGB

MenstrieScotlandGB

Lat: 56.148322, Lon: -3.85483

Elevation: 62

Station Type: Davis Vantage Pro 2

High Low Average
Temperature 57.8°F14.3°C 43.2°F6.2°C 52.8°F11.6°C
Dew Point 51.0°F10.6°C 36.8°F2.7°C 46.3°F7.9°C
Winds 8.1 mph 13.0 kmh Calm Calm 2.0 mph S3.2 kmh S
Wind Gusts 13.8 mph22.2 kmh -- 4.0 mph6.4 kmh
Humidity 80% 77% 78%
Pressure 30.26 in1024.7 mb 30.18 in1022.0 mb -
Precipitation 0.00 in0.0 mm - -
Hour Temp Dew Point Humidity Winds Wind Gusts Pressure Precip Precip Rate Daily Precip Total
12:00 AM 43.4°F6.3°C 37.0°F2.8°C 78% 2.3 mph E3.7 kmh E 3.5 mph5.6 kmh 30.26 in1024.7 mb - 0.00 in0.0 mm 0.00 in0.0 mm
12:05 AM 43.3°F6.3°C 36.9°F2.7°C 78% 2.3 mph E3.7 kmh E 3.5 mph5.6 kmh 30.26 in1024.7 mb - 0.00 in0.0 mm 0.00 in0.0 mm
12:10 AM 43.2°F6.2°C 36.8°F2.7°C 78% 3.5 mph E5.6 kmh E 4.6 mph7.4 kmh 30.26 in1024.7 mb - 0.00 in0.0 mm 0.00 in0.0 mm
12:15 AM 43.2°F6.2°C 36.8°F2.7°C 78% 1.2 mph ENE1.9 kmh ENE 2.3 mph3.7 kmh 30.26 in1024.7 mb - 0.00 in0.0 mm 0.00 in0.0 mm
12:20 AM 43.3°F6.3°C 36.9°F2.7°C 78% 2.3 mph ENE3.7 kmh ENE 2.3 mph3.7 kmh 30.26 in1024.7 mb - 0.00 in0.0 mm 0.00 in0.0 mm
12:25 AM 43.4°F6.3°C 37.4°F3.0°C 79% 2.3 mph E3.7 kmh E 3.5 mph5.6 kmh 30.26 in1024.7 mb - 0.00 in0.0 mm 0.00 in0.0 mm
12:30 AM 43.6°F6.4°C 37.1°F2.8°C 78% 3.5 mph E5.6 kmh E 3.5 mph5.6 kmh 30.26 in1024.7 mb - 0.00 in0.0 mm 0.00 in0.0 mm
12:35 AM 43.7°F6.5°C 37.2°F2.9°C 78% 2.3 mph E3.7 kmh E 3.5 mph5.6 kmh 30.25 in1024.4 mb - 0.00 in0.0 mm 0.00 in0.0 mm
12:40 AM 43.8°F6.6°C 37.4°F3.0°C 78% 2.3 mph E3.7 kmh E 3.5 mph5.6 kmh 30.25 in1024.4 mb - 0.00 in0.0 mm 0.00 in0.0 mm
12:45 AM 44.0°F6.7°C 37.5°F3.1°C 78% 1.2 mph E1.9 kmh E 2.3 mph3.7 kmh 30.25 in1024.4 mb - 0.00 in0.0 mm 0.00 in0.0 mm
12:50 AM 44.0°F6.7°C 37.6°F3.1°C 78% 1.2 mph E1.9 kmh E 2.3 mph3.7 kmh 30.25 in1024.4 mb - 0.00 in0.0 mm 0.00 in0.0 mm
12:55 AM 44.1°F6.7°C 37.7°F3.2°C 78% Calm Calm -- 30.25 in1024.4 mb - 0.00 in0.0 mm 0.00 in0.0 mm
01:00 AM 44.0°F6.7°C 37.6°F3.1°C 78% Calm Calm -- 30.25 in1024.4 mb - 0.00 in0.0 mm 0.00 in0.0 mm
01:05 AM 43.9°F6.6°C 37.5°F3.1°C 78% Calm Calm -- 30.24 in1024.0 mb - 0.00 in0.0 mm 0.00 in0.0 mm
01:10 AM 43.9°F6.6°C 37.5°F3.1°C 78% Calm Calm -- 30.25 in1024.4 mb - 0.00 in0.0 mm 0.00 in0.0 mm
01:15 AM 43.8°F6.6°C 37.4°F3.0°C 78% 2.3 mph E3.7 kmh E 3.5 mph5.6 kmh 30.25 in1024.4 mb - 0.00 in0.0 mm 0.00 in0.0 mm
01:20 AM 43.8°F6.6°C 37.4°F3.0°C 78% 1.2 mph E1.9 kmh E 3.5 mph5.6 kmh 30.25 in1024.4 mb - 0.00 in0.0 mm 0.00 in0.0 mm
01:25 AM 43.8°F6.6°C 37.7°F3.2°C 79% 2.3 mph E3.7 kmh E 3.5 mph5.6 kmh 30.24 in1024.0 mb - 0.00 in0.0 mm 0.00 in0.0 mm
01:30 AM 43.9°F6.6°C 37.8°F3.2°C 79% 2.3 mph E3.7 kmh E 3.5 mph5.6 kmh 30.24 in1024.0 mb - 0.00 in0.0 mm 0.00 in0.0 mm
01:35 AM 44.0°F6.7°C 37.9°F3.3°C 79% 1.2 mph E1.9 kmh E 2.3 mph3.7 kmh 30.25 in1024.4 mb - 0.00 in0.0 mm 0.00 in0.0 mm
01:40 AM 44.1°F6.7°C 38.0°F3.3°C 79% 1.2 mph E1.9 kmh E 2.3 mph3.7 kmh 30.25 in1024.4 mb - 0.00 in0.0 mm 0.00 in0.0 mm
01:45 AM 44.2°F6.8°C 38.1°F3.4°C 79% 2.3 mph E3.7 kmh E 3.5 mph5.6 kmh 30.24 in1024.0 mb - 0.00 in0.0 mm 0.00 in0.0 mm
01:50 AM 44.2°F6.8°C 38.1°F3.4°C 79% 2.3 mph E3.7 kmh E 3.5 mph5.6 kmh 30.24 in1024.0 mb - 0.00 in0.0 mm 0.00 in0.0 mm
01:55 AM 44.3°F6.8°C 38.2°F3.4°C 79% 1.2 mph E1.9 kmh E 2.3 mph3.7 kmh 30.24 in1024.0 mb - 0.00 in0.0 mm 0.00 in0.0 mm
02:00 AM 44.4°F6.9°C 38.3°F3.5°C 79% 1.2 mph E1.9 kmh E 3.5 mph5.6 kmh 30.24 in1024.0 mb - 0.00 in0.0 mm 0.00 in0.0 mm
02:05 AM 44.5°F6.9°C 38.4°F3.6°C 79% 2.3 mph E3.7 kmh E 3.5 mph5.6 kmh 30.24 in1024.0 mb - 0.00 in0.0 mm 0.00 in0.0 mm
02:10 AM 44.6°F7.0°C 38.5°F3.6°C 79% 1.2 mph E1.9 kmh E 2.3 mph3.7 kmh 30.24 in1024.0 mb - 0.00 in0.0 mm 0.00 in0.0 mm
02:15 AM 44.7°F7.1°C 38.6°F3.7°C 79% 1.2 mph E1.9 kmh E 3.5 mph5.6 kmh 30.24 in1024.0 mb - 0.00 in0.0 mm 0.00 in0.0 mm
02:20 AM 44.9°F7.2°C 38.8°F3.8°C 79% 1.2 mph E1.9 kmh E 2.3 mph3.7 kmh 30.24 in1024.0 mb - 0.00 in0.0 mm 0.00 in0.0 mm
02:25 AM 44.9°F7.2°C 38.8°F3.8°C 79% Calm Calm -- 30.24 in1024.0 mb - 0.00 in0.0 mm 0.00 in0.0 mm
02:30 AM 44.9°F7.2°C 38.8°F3.8°C 79% 1.2 mph E1.9 kmh E 2.3 mph3.7 kmh 30.24 in1024.0 mb - 0.00 in0.0 mm 0.00 in0.0 mm
02:35 AM 44.9°F7.2°C 38.8°F3.8°C 79% Calm Calm 1.2 mph1.9 kmh 30.23 in1023.7 mb - 0.00 in0.0 mm 0.00 in0.0 mm
02:40 AM 44.9°F7.2°C 38.8°F3.8°C 79% 1.2 mph E1.9 kmh E 1.2 mph1.9 kmh 30.23 in1023.7 mb - 0.00 in0.0 mm 0.00 in0.0 mm
02:45 AM 44.9°F7.2°C 38.8°F3.8°C 79% Calm Calm -- 30.23 in1023.7 mb - 0.00 in0.0 mm 0.00 in0.0 mm
02:50 AM 45.0°F7.2°C 38.9°F3.8°C 79% Calm Calm 2.3 mph3.7 kmh 30.23 in1023.7 mb - 0.00 in0.0 mm 0.00 in0.0 mm
02:55 AM 45.0°F7.2°C 38.9°F3.8°C 79% 2.3 mph E3.7 kmh E 2.3 mph3.7 kmh 30.23 in1023.7 mb - 0.00 in0.0 mm 0.00 in0.0 mm
03:00 AM 45.1°F7.3°C 39.0°F3.9°C 79% 2.3 mph E3.7 kmh E 2.3 mph3.7 kmh 30.23 in1023.7 mb - 0.00 in0.0 mm 0.00 in0.0 mm
03:05 AM 45.1°F7.3°C 39.0°F3.9°C 79% 1.2 mph E1.9 kmh E 2.3 mph3.7 kmh 30.23 in1023.7 mb - 0.00 in0.0 mm 0.00 in0.0 mm
03:10 AM 45.1°F7.3°C 39.0°F3.9°C 79% 2.3 mph E3.7 kmh E 3.5 mph5.6 kmh 30.23 in1023.7 mb - 0.00 in0.0 mm 0.00 in0.0 mm
03:15 AM 45.1°F7.3°C 39.0°F3.9°C 79% 2.3 mph E3.7 kmh E 3.5 mph5.6 kmh 30.23 in1023.7 mb - 0.00 in0.0 mm 0.00 in0.0 mm
03:20 AM 45.2°F7.3°C 39.1°F3.9°C 79% 2.3 mph E3.7 kmh E 3.5 mph5.6 kmh 30.23 in1023.7 mb - 0.00 in0.0 mm 0.00 in0.0 mm
03:25 AM 45.2°F7.3°C 39.1°F3.9°C 79% 2.3 mph E3.7 kmh E 3.5 mph5.6 kmh 30.23 in1023.7 mb - 0.00 in0.0 mm 0.00 in0.0 mm
03:30 AM 45.3°F7.4°C 39.2°F4.0°C 79% 2.3 mph E3.7 kmh E 3.5 mph5.6 kmh 30.23 in1023.7 mb - 0.00 in0.0 mm 0.00 in0.0 mm
03:35 AM 45.4°F7.4°C 39.6°F4.2°C 80% 3.5 mph E5.6 kmh E 5.8 mph9.3 kmh 30.23 in1023.7 mb - 0.00 in0.0 mm 0.00 in0.0 mm
03:40 AM 45.4°F7.4°C 39.6°F4.2°C 80% 3.5 mph E5.6 kmh E 3.5 mph5.6 kmh 30.23 in1023.7 mb - 0.00 in0.0 mm 0.00 in0.0 mm
03:45 AM 45.5°F7.5°C 39.7°F4.3°C 80% 2.3 mph E3.7 kmh E 3.5 mph5.6 kmh 30.22 in1023.4 mb - 0.00 in0.0 mm 0.00 in0.0 mm
03:50 AM 45.8°F7.7°C 40.0°F4.4°C 80% 2.3 mph E3.7 kmh E 3.5 mph5.6 kmh 30.22 in1023.4 mb - 0.00 in0.0 mm 0.00 in0.0 mm
03:55 AM 45.9°F7.7°C 40.1°F4.5°C 80% 2.3 mph E3.7 kmh E 3.5 mph5.6 kmh 30.22 in1023.4 mb - 0.00 in0.0 mm 0.00 in0.0 mm
04:00 AM 45.9°F7.7°C 40.1°F4.5°C 80% 1.2 mph E1.9 kmh E 2.3 mph3.7 kmh 30.22 in1023.4 mb - 0.00 in0.0 mm 0.00 in0.0 mm
04:05 AM 46.0°F7.8°C 40.2°F4.6°C 80% Calm Calm -- 30.22 in1023.4 mb - 0.00 in0.0 mm 0.00 in0.0 mm
04:10 AM 46.1°F7.8°C 40.3°F4.6°C 80% Calm Calm -- 30.22 in1023.4 mb - 0.00 in0.0 mm 0.00 in0.0 mm
04:15 AM 46.4°F8.0°C 40.5°F4.7°C 80% Calm Calm -- 30.22 in1023.4 mb - 0.00 in0.0 mm 0.00 in0.0 mm
04:20 AM 46.6°F8.1°C 40.8°F4.9°C 80% Calm Calm -- 30.22 in1023.4 mb - 0.00 in0.0 mm 0.00 in0.0 mm
04:25 AM 46.9°F8.3°C 41.1°F5.1°C 80% Calm Calm -- 30.22 in1023.4 mb - 0.00 in0.0 mm 0.00 in0.0 mm
04:30 AM 47.0°F8.3°C 41.1°F5.1°C 80% Calm Calm -- 30.22 in1023.4 mb - 0.00 in0.0 mm 0.00 in0.0 mm
04:35 AM 47.0°F8.3°C 41.1°F5.1°C 80% Calm Calm -- 30.22 in1023.4 mb - 0.00 in0.0 mm 0.00 in0.0 mm
04:40 AM 47.0°F8.3°C 41.2°F5.1°C 80% Calm Calm -- 30.22 in1023.4 mb - 0.00 in0.0 mm 0.00 in0.0 mm
04:45 AM 47.2°F8.4°C 41.3°F5.2°C 80% Calm Calm -- 30.22 in1023.4 mb - 0.00 in0.0 mm 0.00 in0.0 mm
04:50 AM 47.3°F8.5°C 41.4°F5.2°C 80% Calm Calm -- 30.22 in1023.4 mb - 0.00 in0.0 mm 0.00 in0.0 mm
04:55 AM 47.4°F8.6°C 41.5°F5.3°C 80% Calm Calm -- 30.22 in1023.4 mb - 0.00 in0.0 mm 0.00 in0.0 mm
05:00 AM 47.4°F8.6°C 41.5°F5.3°C 80% Calm Calm -- 30.22 in1023.4 mb - 0.00 in0.0 mm 0.00 in0.0 mm
05:05 AM 47.6°F8.7°C 41.8°F5.4°C 80% 1.2 mph E1.9 kmh E 2.3 mph3.7 kmh 30.21 in1023.0 mb - 0.00 in0.0 mm 0.00 in0.0 mm
05:10 AM 47.8°F8.8°C 41.9°F5.5°C 80% Calm Calm -- 30.22 in1023.4 mb - 0.00 in0.0 mm 0.00 in0.0 mm
05:15 AM 47.9°F8.8°C 42.0°F5.6°C 80% 2.3 mph E3.7 kmh E 3.5 mph5.6 kmh 30.22 in1023.4 mb - 0.00 in0.0 mm 0.00 in0.0 mm
05:20 AM 48.0°F8.9°C 42.1°F5.6°C 80% Calm Calm -- 30.22 in1023.4 mb - 0.00 in0.0 mm 0.00 in0.0 mm
05:25 AM 47.9°F8.8°C 42.0°F5.6°C 80% 2.3 mph E3.7 kmh E 3.5 mph5.6 kmh 30.22 in1023.4 mb - 0.00 in0.0 mm 0.00 in0.0 mm
05:30 AM 48.0°F8.9°C 42.1°F5.6°C 80% 1.2 mph E1.9 kmh E 2.3 mph3.7 kmh 30.22 in1023.4 mb - 0.00 in0.0 mm 0.00 in0.0 mm
05:35 AM 48.0°F8.9°C 42.1°F5.6°C 80% Calm Calm -- 30.21 in1023.0 mb - 0.00 in0.0 mm 0.00 in0.0 mm
05:40 AM 48.1°F8.9°C 42.2°F5.7°C 80% Calm Calm -- 30.21 in1023.0 mb - 0.00 in0.0 mm 0.00 in0.0 mm
05:45 AM 48.2°F9.0°C 42.3°F5.7°C 80% Calm Calm -- 30.21 in1023.0 mb - 0.00 in0.0 mm 0.00 in0.0 mm
05:50 AM 48.4°F9.1°C 42.5°F5.8°C 80% Calm Calm -- 30.21 in1023.0 mb - 0.00 in0.0 mm 0.00 in0.0 mm
05:55 AM 48.4°F9.1°C 42.5°F5.8°C 80% 1.2 mph E1.9 kmh E 2.3 mph3.7 kmh 30.21 in1023.0 mb - 0.00 in0.0 mm 0.00 in0.0 mm
06:00 AM 48.2°F9.0°C 42.3°F5.7°C 80% 2.3 mph E3.7 kmh E 3.5 mph5.6 kmh 30.21 in1023.0 mb - 0.00 in0.0 mm 0.00 in0.0 mm
06:05 AM 48.0°F8.9°C 42.1°F5.6°C 80% 2.3 mph E3.7 kmh E 3.5 mph5.6 kmh 30.21 in1023.0 mb - 0.00 in0.0 mm 0.00 in0.0 mm
06:10 AM 47.8°F8.8°C 41.9°F5.5°C 80% 1.2 mph E1.9 kmh E 2.3 mph3.7 kmh 30.21 in1023.0 mb - 0.00 in0.0 mm 0.00 in0.0 mm
06:15 AM 47.8°F8.8°C 41.9°F5.5°C 80% 2.3 mph E3.7 kmh E 3.5 mph5.6 kmh 30.21 in1023.0 mb - 0.00 in0.0 mm 0.00 in0.0 mm
06:20 AM 47.9°F8.8°C 42.0°F5.6°C 80% 1.2 mph E1.9 kmh E 3.5 mph5.6 kmh 30.21 in1023.0 mb - 0.00 in0.0 mm 0.00 in0.0 mm
06:25 AM 48.1°F8.9°C 42.2°F5.7°C 80% 1.2 mph E1.9 kmh E 3.5 mph5.6 kmh 30.22 in1023.4 mb - 0.00 in0.0 mm 0.00 in0.0 mm
06:30 AM 48.2°F9.0°C 42.3°F5.7°C 80% 1.2 mph E1.9 kmh E 1.2 mph1.9 kmh 30.21 in1023.0 mb - 0.00 in0.0 mm 0.00 in0.0 mm
06:35 AM 48.5°F9.2°C 42.6°F5.9°C 80% Calm Calm 1.2 mph1.9 kmh 30.21 in1023.0 mb - 0.00 in0.0 mm 0.00 in0.0 mm
06:40 AM 48.8°F9.3°C 42.9°F6.1°C 80% 1.2 mph E1.9 kmh E 2.3 mph3.7 kmh 30.21 in1023.0 mb - 0.00 in0.0 mm 0.00 in0.0 mm
06:45 AM 49.1°F9.5°C 43.2°F6.2°C 80% Calm Calm -- 30.21 in1023.0 mb - 0.00 in0.0 mm 0.00 in0.0 mm
06:50 AM 49.3°F9.6°C 43.4°F6.3°C 80% Calm Calm -- 30.21 in1023.0 mb - 0.00 in0.0 mm 0.00 in0.0 mm
06:55 AM 49.4°F9.7°C 43.5°F6.4°C 80% Calm Calm -- 30.21 in1023.0 mb - 0.00 in0.0 mm 0.00 in0.0 mm
07:00 AM 49.5°F9.7°C 43.6°F6.4°C 80% Calm Calm -- 30.21 in1023.0 mb - 0.00 in0.0 mm 0.00 in0.0 mm
07:05 AM 49.7°F9.8°C 43.8°F6.6°C 80% Calm Calm -- 30.21 in1023.0 mb - 0.00 in0.0 mm 0.00 in0.0 mm
07:10 AM 50.0°F10.0°C 44.1°F6.7°C 80% Calm Calm -- 30.21 in1023.0 mb - 0.00 in0.0 mm 0.00 in0.0 mm
07:15 AM 50.4°F10.2°C 44.5°F6.9°C 80% Calm Calm -- 30.21 in1023.0 mb - 0.00 in0.0 mm 0.00 in0.0 mm
07:20 AM 50.9°F10.5°C 44.9°F7.2°C 80% Calm Calm -- 30.21 in1023.0 mb - 0.00 in0.0 mm 0.00 in0.0 mm
07:25 AM 51.0°F10.6°C 45.0°F7.2°C 80% 2.3 mph N3.7 kmh N 3.5 mph5.6 kmh 30.21 in1023.0 mb - 0.00 in0.0 mm 0.00 in0.0 mm
07:30 AM 51.0°F10.6°C 45.0°F7.2°C 80% Calm Calm -- 30.20 in1022.7 mb - 0.00 in0.0 mm 0.00 in0.0 mm
07:35 AM 51.1°F10.6°C 45.1°F7.3°C 80% Calm Calm -- 30.20 in1022.7 mb - 0.00 in0.0 mm 0.00 in0.0 mm
07:40 AM 51.3°F10.7°C 45.3°F7.4°C 80% Calm Calm -- 30.20 in1022.7 mb - 0.00 in0.0 mm 0.00 in0.0 mm
07:45 AM 51.5°F10.8°C 45.5°F7.5°C 80% 1.2 mph W1.9 kmh W 3.5 mph5.6 kmh 30.21 in1023.0 mb - 0.00 in0.0 mm 0.00 in0.0 mm
07:50 AM 51.7°F10.9°C 45.7°F7.6°C 80% 1.2 mph W1.9 kmh W 1.2 mph1.9 kmh 30.21 in1023.0 mb - 0.00 in0.0 mm 0.00 in0.0 mm
07:55 AM 51.8°F11.0°C 45.8°F7.7°C 80% Calm Calm -- 30.22 in1023.4 mb - 0.00 in0.0 mm 0.00 in0.0 mm
08:00 AM 51.9°F11.1°C 45.9°F7.7°C 80% 1.2 mph W1.9 kmh W 2.3 mph3.7 kmh 30.21 in1023.0 mb - 0.00 in0.0 mm 0.00 in0.0 mm
08:05 AM 52.1°F11.2°C 46.1°F7.8°C 80% 1.2 mph W1.9 kmh W 2.3 mph3.7 kmh 30.22 in1023.4 mb - 0.00 in0.0 mm 0.00 in0.0 mm
08:10 AM 52.2°F11.2°C 46.2°F7.9°C 80% 1.2 mph W1.9 kmh W 2.3 mph3.7 kmh 30.22 in1023.4 mb - 0.00 in0.0 mm 0.00 in0.0 mm
08:15 AM 52.3°F11.3°C 46.3°F7.9°C 80% Calm Calm 2.3 mph3.7 kmh 30.22 in1023.4 mb - 0.00 in0.0 mm 0.00 in0.0 mm
08:20 AM 52.4°F11.3°C 46.4°F8.0°C 80% Calm Calm 5.8 mph9.3 kmh 30.22 in1023.4 mb - 0.00 in0.0 mm 0.00 in0.0 mm
08:25 AM 52.6°F11.4°C 46.6°F8.1°C 80% 2.3 mph WSW3.7 kmh WSW 3.5 mph5.6 kmh 30.23 in1023.7 mb - 0.00 in0.0 mm 0.00 in0.0 mm
08:30 AM 52.8°F11.6°C 46.8°F8.2°C 80% 2.3 mph WSW3.7 kmh WSW 3.5 mph5.6 kmh 30.23 in1023.7 mb - 0.00 in0.0 mm 0.00 in0.0 mm
08:35 AM 53.0°F11.7°C 47.0°F8.3°C 80% 4.6 mph WSW7.4 kmh WSW 6.9 mph11.1 kmh 30.23 in1023.7 mb - 0.00 in0.0 mm 0.00 in0.0 mm
08:40 AM 53.4°F11.9°C 47.4°F8.6°C 80% 3.5 mph WSW5.6 kmh WSW 3.5 mph5.6 kmh 30.23 in1023.7 mb - 0.00 in0.0 mm 0.00 in0.0 mm
08:45 AM 53.6°F12.0°C 47.6°F8.7°C 80% 3.5 mph WSW5.6 kmh WSW 4.6 mph7.4 kmh 30.23 in1023.7 mb - 0.00 in0.0 mm 0.00 in0.0 mm
08:50 AM 53.7°F12.1°C 47.7°F8.7°C 80% 3.5 mph W5.6 kmh W 8.1 mph13.0 kmh 30.23 in1023.7 mb - 0.00 in0.0 mm 0.00 in0.0 mm
08:55 AM 53.8°F12.1°C 47.8°F8.8°C 80% 3.5 mph WSW5.6 kmh WSW 8.1 mph13.0 kmh 30.23 in1023.7 mb - 0.00 in0.0 mm 0.00 in0.0 mm
09:00 AM 53.9°F12.2°C 47.9°F8.8°C 80% 2.3 mph WSW3.7 kmh WSW 3.5 mph5.6 kmh 30.23 in1023.7 mb - 0.00 in0.0 mm 0.00 in0.0 mm
09:05 AM 54.0°F12.2°C 48.0°F8.9°C 80% 1.2 mph WSW1.9 kmh WSW 3.5 mph5.6 kmh 30.23 in1023.7 mb - 0.00 in0.0 mm 0.00 in0.0 mm
09:10 AM 54.0°F12.2°C 48.0°F8.9°C 80% Calm Calm -- 30.23 in1023.7 mb - 0.00 in0.0 mm 0.00 in0.0 mm
09:15 AM 54.0°F12.2°C 48.0°F8.9°C 80% 4.6 mph WSW7.4 kmh WSW 9.2 mph14.8 kmh 30.23 in1023.7 mb - 0.00 in0.0 mm 0.00 in0.0 mm
09:20 AM 54.1°F12.3°C 47.7°F8.7°C 79% 5.8 mph WSW9.3 kmh WSW 10.4 mph16.7 kmh 30.23 in1023.7 mb - 0.00 in0.0 mm 0.00 in0.0 mm
09:25 AM 54.3°F12.4°C 47.9°F8.8°C 79% 3.5 mph WSW5.6 kmh WSW 9.2 mph14.8 kmh 30.23 in1023.7 mb - 0.00 in0.0 mm 0.00 in0.0 mm
09:30 AM 54.4°F12.4°C 48.0°F8.9°C 79% 5.8 mph WSW9.3 kmh WSW 8.1 mph13.0 kmh 30.23 in1023.7 mb - 0.00 in0.0 mm 0.00 in0.0 mm
09:35 AM 54.5°F12.5°C 48.1°F8.9°C 79% 3.5 mph WSW5.6 kmh WSW 9.2 mph14.8 kmh 30.23 in1023.7 mb - 0.00 in0.0 mm 0.00 in0.0 mm
09:40 AM 54.5°F12.5°C 48.1°F8.9°C 79% 3.5 mph W5.6 kmh W 6.9 mph11.1 kmh 30.24 in1024.0 mb - 0.00 in0.0 mm 0.00 in0.0 mm
09:45 AM 54.6°F12.6°C 48.2°F9.0°C 79% 3.5 mph WSW5.6 kmh WSW 3.5 mph5.6 kmh 30.24 in1024.0 mb - 0.00 in0.0 mm 0.00 in0.0 mm
09:50 AM 54.6°F12.6°C 48.2°F9.0°C 79% 2.3 mph WSW3.7 kmh WSW 3.5 mph5.6 kmh 30.24 in1024.0 mb - 0.00 in0.0 mm 0.00 in0.0 mm
09:55 AM 54.7°F12.6°C 48.3°F9.1°C 79% 1.2 mph WSW1.9 kmh WSW 3.5 mph5.6 kmh 30.24 in1024.0 mb - 0.00 in0.0 mm 0.00 in0.0 mm
10:00 AM 54.7°F12.6°C 48.3°F9.1°C 79% 2.3 mph WSW3.7 kmh WSW 3.5 mph5.6 kmh 30.24 in1024.0 mb - 0.00 in0.0 mm 0.00 in0.0 mm
10:05 AM 54.8°F12.7°C 48.4°F9.1°C 79% 8.1 mph SW13.0 kmh SW 12.7 mph20.4 kmh 30.24 in1024.0 mb - 0.00 in0.0 mm 0.00 in0.0 mm
10:10 AM 54.9°F12.7°C 48.5°F9.2°C 79% 6.9 mph WSW11.1 kmh WSW 11.5 mph18.5 kmh 30.24 in1024.0 mb - 0.00 in0.0 mm 0.00 in0.0 mm
10:15 AM 55.1°F12.8°C 48.3°F9.1°C 78% 4.6 mph WSW7.4 kmh WSW 10.4 mph16.7 kmh 30.24 in1024.0 mb - 0.00 in0.0 mm 0.00 in0.0 mm
10:20 AM 55.3°F12.9°C 48.6°F9.2°C 78% 5.8 mph SW9.3 kmh SW 10.4 mph16.7 kmh 30.24 in1024.0 mb - 0.00 in0.0 mm 0.00 in0.0 mm
10:25 AM 55.5°F13.1°C 48.8°F9.3°C 78% 3.5 mph WSW5.6 kmh WSW 5.8 mph9.3 kmh 30.24 in1024.0 mb - 0.00 in0.0 mm 0.00 in0.0 mm
10:30 AM 55.7°F13.2°C 48.9°F9.4°C 78% 3.5 mph WSW5.6 kmh WSW 10.4 mph16.7 kmh 30.24 in1024.0 mb - 0.00 in0.0 mm 0.00 in0.0 mm
10:35 AM 55.7°F13.2°C 48.9°F9.4°C 78% 4.6 mph WSW7.4 kmh WSW 9.2 mph14.8 kmh 30.24 in1024.0 mb - 0.00 in0.0 mm 0.00 in0.0 mm
10:40 AM 55.7°F13.2°C 48.9°F9.4°C 78% 2.3 mph WSW3.7 kmh WSW 3.5 mph5.6 kmh 30.23 in1023.7 mb - 0.00 in0.0 mm 0.00 in0.0 mm
10:45 AM 55.7°F13.2°C 48.6°F9.2°C 77% 3.5 mph SW5.6 kmh SW 3.5 mph5.6 kmh 30.23 in1023.7 mb - 0.00 in0.0 mm 0.00 in0.0 mm
10:50 AM 55.7°F13.2°C 48.6°F9.2°C 77% 6.9 mph WSW11.1 kmh WSW 11.5 mph18.5 kmh 30.24 in1024.0 mb - 0.00 in0.0 mm 0.00 in0.0 mm
10:55 AM 55.7°F13.2°C 48.6°F9.2°C 77% 3.5 mph SW5.6 kmh SW 10.4 mph16.7 kmh 30.23 in1023.7 mb - 0.00 in0.0 mm 0.00 in0.0 mm
11:00 AM 55.8°F13.2°C 48.7°F9.3°C 77% 3.5 mph WSW5.6 kmh WSW 6.9 mph11.1 kmh 30.23 in1023.7 mb - 0.00 in0.0 mm 0.00 in0.0 mm
11:05 AM 55.9°F13.3°C 48.8°F9.3°C 77% 3.5 mph WSW5.6 kmh WSW 5.8 mph9.3 kmh 30.24 in1024.0 mb - 0.00 in0.0 mm 0.00 in0.0 mm
11:10 AM 55.9°F13.3°C 48.8°F9.3°C 77% 4.6 mph SW7.4 kmh SW 6.9 mph11.1 kmh 30.24 in1024.0 mb - 0.00 in0.0 mm 0.00 in0.0 mm
11:15 AM 56.0°F13.3°C 48.9°F9.4°C 77% 5.8 mph SW9.3 kmh SW 9.2 mph14.8 kmh 30.24 in1024.0 mb - 0.00 in0.0 mm 0.00 in0.0 mm
11:20 AM 56.1°F13.4°C 49.0°F9.4°C 77% 5.8 mph WSW9.3 kmh WSW 8.1 mph13.0 kmh 30.24 in1024.0 mb - 0.00 in0.0 mm 0.00 in0.0 mm
11:25 AM 56.2°F13.4°C 49.0°F9.4°C 77% 4.6 mph WSW7.4 kmh WSW 6.9 mph11.1 kmh 30.24 in1024.0 mb - 0.00 in0.0 mm 0.00 in0.0 mm
11:30 AM 56.2°F13.4°C 49.1°F9.5°C 77% 3.5 mph W5.6 kmh W 5.8 mph9.3 kmh 30.24 in1024.0 mb - 0.00 in0.0 mm 0.00 in0.0 mm
11:35 AM 56.3°F13.5°C 49.2°F9.6°C 77% 4.6 mph SW7.4 kmh SW 6.9 mph11.1 kmh 30.24 in1024.0 mb - 0.00 in0.0 mm 0.00 in0.0 mm
11:40 AM 56.3°F13.5°C 49.2°F9.6°C 77% 4.6 mph WSW7.4 kmh WSW 8.1 mph13.0 kmh 30.24 in1024.0 mb - 0.00 in0.0 mm 0.00 in0.0 mm
11:45 AM 56.5°F13.6°C 49.4°F9.7°C 77% 3.5 mph WSW5.6 kmh WSW 10.4 mph16.7 kmh 30.24 in1024.0 mb - 0.00 in0.0 mm 0.00 in0.0 mm
11:50 AM 56.6°F13.7°C 49.8°F9.9°C 78% 6.9 mph SW11.1 kmh SW 11.5 mph18.5 kmh 30.24 in1024.0 mb - 0.00 in0.0 mm 0.00 in0.0 mm
11:55 AM 56.6°F13.7°C 49.8°F9.9°C 78% 5.8 mph SW9.3 kmh SW 9.2 mph14.8 kmh 30.24 in1024.0 mb - 0.00 in0.0 mm 0.00 in0.0 mm
12:00 PM 56.6°F13.7°C 49.8°F9.9°C 78% 5.8 mph SW9.3 kmh SW 8.1 mph13.0 kmh 30.24 in1024.0 mb - 0.00 in0.0 mm 0.00 in0.0 mm
12:05 PM 56.4°F13.6°C 49.3°F9.6°C 77% 2.3 mph SW3.7 kmh SW 3.5 mph5.6 kmh 30.24 in1024.0 mb - 0.00 in0.0 mm 0.00 in0.0 mm
12:10 PM 56.3°F13.5°C 49.2°F9.6°C 77% 3.5 mph SW5.6 kmh SW 4.6 mph7.4 kmh 30.24 in1024.0 mb - 0.00 in0.0 mm 0.00 in0.0 mm
12:15 PM 56.2°F13.4°C 49.1°F9.5°C 77% 3.5 mph SSW5.6 kmh SSW 9.2 mph14.8 kmh 30.23 in1023.7 mb - 0.00 in0.0 mm 0.00 in0.0 mm
12:20 PM 56.2°F13.4°C 49.0°F9.4°C 77% 2.3 mph SSW3.7 kmh SSW 5.8 mph9.3 kmh 30.23 in1023.7 mb - 0.00 in0.0 mm 0.00 in0.0 mm
12:25 PM 56.1°F13.4°C 49.0°F9.4°C 77% 3.5 mph SW5.6 kmh SW 5.8 mph9.3 kmh 30.23 in1023.7 mb - 0.00 in0.0 mm 0.00 in0.0 mm
12:30 PM 56.0°F13.3°C 48.9°F9.4°C 77% 3.5 mph SW5.6 kmh SW 4.6 mph7.4 kmh 30.23 in1023.7 mb - 0.00 in0.0 mm 0.00 in0.0 mm
12:35 PM 56.0°F13.3°C 48.9°F9.4°C 77% 2.3 mph SSW3.7 kmh SSW 4.6 mph7.4 kmh 30.23 in1023.7 mb - 0.00 in0.0 mm 0.00 in0.0 mm
12:40 PM 56.1°F13.4°C 49.0°F9.4°C 77% 2.3 mph SW3.7 kmh SW 3.5 mph5.6 kmh 30.23 in1023.7 mb - 0.00 in0.0 mm 0.00 in0.0 mm
12:45 PM 56.1°F13.4°C 49.0°F9.4°C 77% 1.2 mph SW1.9 kmh SW 3.5 mph5.6 kmh 30.23 in1023.7 mb - 0.00 in0.0 mm 0.00 in0.0 mm
12:50 PM 56.1°F13.4°C 49.0°F9.4°C 77% 1.2 mph SSW1.9 kmh SSW 3.5 mph5.6 kmh 30.23 in1023.7 mb - 0.00 in0.0 mm 0.00 in0.0 mm
12:55 PM 56.1°F13.4°C 49.0°F9.4°C 77% 1.2 mph S1.9 kmh S 2.3 mph3.7 kmh 30.23 in1023.7 mb - 0.00 in0.0 mm 0.00 in0.0 mm
01:00 PM 56.1°F13.4°C 49.0°F9.4°C 77% 1.2 mph S1.9 kmh S 1.2 mph1.9 kmh 30.23 in1023.7 mb - 0.00 in0.0 mm 0.00 in0.0 mm
01:05 PM 56.1°F13.4°C 49.0°F9.4°C 77% Calm Calm -- 30.23 in1023.7 mb - 0.00 in0.0 mm 0.00 in0.0 mm
01:10 PM 56.1°F13.4°C 49.0°F9.4°C 77% Calm Calm -- 30.23 in1023.7 mb - 0.00 in0.0 mm 0.00 in0.0 mm
01:15 PM 56.1°F13.4°C 49.0°F9.4°C 77% Calm Calm -- 30.23 in1023.7 mb - 0.00 in0.0 mm 0.00 in0.0 mm
01:20 PM 56.2°F13.4°C 49.1°F9.5°C 77% Calm Calm -- 30.23 in1023.7 mb - 0.00 in0.0 mm 0.00 in0.0 mm
01:25 PM 56.2°F13.4°C 49.1°F9.5°C 77% Calm Calm -- 30.23 in1023.7 mb - 0.00 in0.0 mm 0.00 in0.0 mm
01:30 PM 56.2°F13.4°C 49.1°F9.5°C 77% 3.5 mph WSW5.6 kmh WSW 8.1 mph13.0 kmh 30.23 in1023.7 mb - 0.00 in0.0 mm 0.00 in0.0 mm
01:35 PM 56.2°F13.4°C 49.1°F9.5°C 77% 5.8 mph W9.3 kmh W 10.4 mph16.7 kmh 30.23 in1023.7 mb - 0.00 in0.0 mm 0.00 in0.0 mm
01:40 PM 56.4°F13.6°C 49.2°F9.6°C 77% 2.3 mph SW3.7 kmh SW 3.5 mph5.6 kmh 30.22 in1023.4 mb - 0.00 in0.0 mm 0.00 in0.0 mm
01:45 PM 56.6°F13.7°C 49.5°F9.7°C 77% 1.2 mph WSW1.9 kmh WSW 9.2 mph14.8 kmh 30.22 in1023.4 mb - 0.00 in0.0 mm 0.00 in0.0 mm
01:50 PM 56.8°F13.8°C 49.7°F9.8°C 77% 4.6 mph WSW7.4 kmh WSW 6.9 mph11.1 kmh 30.22 in1023.4 mb - 0.00 in0.0 mm 0.00 in0.0 mm
01:55 PM 57.0°F13.9°C 49.8°F9.9°C 77% 2.3 mph W3.7 kmh W 3.5 mph5.6 kmh 30.22 in1023.4 mb - 0.00 in0.0 mm 0.00 in0.0 mm
02:00 PM 57.1°F13.9°C 50.0°F10.0°C 77% 4.6 mph WSW7.4 kmh WSW 10.4 mph16.7 kmh 30.22 in1023.4 mb - 0.00 in0.0 mm 0.00 in0.0 mm
02:05 PM 57.3°F14.1°C 50.1°F10.1°C 77% 4.6 mph WSW7.4 kmh WSW 10.4 mph16.7 kmh 30.22 in1023.4 mb - 0.00 in0.0 mm 0.00 in0.0 mm
02:10 PM 57.4°F14.1°C 50.3°F10.2°C 77% 4.6 mph WSW7.4 kmh WSW 8.1 mph13.0 kmh 30.22 in1023.4 mb - 0.00 in0.0 mm 0.00 in0.0 mm
02:15 PM 57.6°F14.2°C 50.8°F10.4°C 78% 5.8 mph WSW9.3 kmh WSW 8.1 mph13.0 kmh 30.22 in1023.4 mb - 0.00 in0.0 mm 0.00 in0.0 mm
02:20 PM 57.7°F14.3°C 50.5°F10.3°C 77% 4.6 mph WSW7.4 kmh WSW 8.1 mph13.0 kmh 30.22 in1023.4 mb - 0.00 in0.0 mm 0.00 in0.0 mm
02:25 PM 57.8°F14.3°C 51.0°F10.6°C 78% 4.6 mph WSW7.4 kmh WSW 11.5 mph18.5 kmh 30.22 in1023.4 mb - 0.00 in0.0 mm 0.00 in0.0 mm
02:30 PM 57.8°F14.3°C 51.0°F10.6°C 78% 8.1 mph WSW13.0 kmh WSW 13.8 mph22.2 kmh 30.22 in1023.4 mb - 0.00 in0.0 mm 0.00 in0.0 mm
02:35 PM 57.6°F14.2°C 50.8°F10.4°C 78% 6.9 mph WSW11.1 kmh WSW 9.2 mph14.8 kmh 30.22 in1023.4 mb - 0.00 in0.0 mm 0.00 in0.0 mm
02:40 PM 57.5°F14.2°C 50.7°F10.4°C 78% 6.9 mph WSW11.1 kmh WSW 11.5 mph18.5 kmh 30.22 in1023.4 mb - 0.00 in0.0 mm 0.00 in0.0 mm
02:45 PM 57.3°F14.1°C 50.5°F10.3°C 78% 3.5 mph WSW5.6 kmh WSW 5.8 mph9.3 kmh 30.22 in1023.4 mb - 0.00 in0.0 mm 0.00 in0.0 mm
02:50 PM 57.2°F14.0°C 50.0°F10.0°C 77% 6.9 mph SW11.1 kmh SW 13.8 mph22.2 kmh 30.22 in1023.4 mb - 0.00 in0.0 mm 0.00 in0.0 mm
02:55 PM 57.0°F13.9°C 49.9°F9.9°C 77% 4.6 mph WSW7.4 kmh WSW 6.9 mph11.1 kmh 30.22 in1023.4 mb - 0.00 in0.0 mm 0.00 in0.0 mm
03:00 PM 56.9°F13.8°C 49.8°F9.9°C 77% 2.3 mph WSW3.7 kmh WSW 9.2 mph14.8 kmh 30.22 in1023.4 mb - 0.00 in0.0 mm 0.00 in0.0 mm
03:05 PM 56.8°F13.8°C 49.7°F9.8°C 77% 3.5 mph WSW5.6 kmh WSW 5.8 mph9.3 kmh 30.22 in1023.4 mb - 0.00 in0.0 mm 0.00 in0.0 mm
03:25 PM 56.4°F13.6°C 49.3°F9.6°C 77% 2.3 mph WSW3.7 kmh WSW 3.5 mph5.6 kmh 30.22 in1023.4 mb - 0.00 in0.0 mm 0.00 in0.0 mm
03:30 PM 56.4°F13.6°C 49.3°F9.6°C 77% 2.3 mph WSW3.7 kmh WSW 3.5 mph5.6 kmh 30.22 in1023.4 mb - 0.00 in0.0 mm 0.00 in0.0 mm
03:35 PM 56.3°F13.5°C 49.2°F9.6°C 77% 2.3 mph WSW3.7 kmh WSW 3.5 mph5.6 kmh 30.22 in1023.4 mb - 0.00 in0.0 mm 0.00 in0.0 mm
03:40 PM 56.2°F13.4°C 49.1°F9.5°C 77% 1.2 mph WSW1.9 kmh WSW 2.3 mph3.7 kmh 30.22 in1023.4 mb - 0.00 in0.0 mm 0.00 in0.0 mm
03:45 PM 56.1°F13.4°C 49.0°F9.4°C 77% 1.2 mph WSW1.9 kmh WSW 2.3 mph3.7 kmh 30.22 in1023.4 mb - 0.00 in0.0 mm 0.00 in0.0 mm
03:50 PM 56.0°F13.3°C 48.9°F9.4°C 77% 1.2 mph WSW1.9 kmh WSW 2.3 mph3.7 kmh 30.22 in1023.4 mb - 0.00 in0.0 mm 0.00 in0.0 mm
03:55 PM 56.0°F13.3°C 48.9°F9.4°C 77% 3.5 mph WNW5.6 kmh WNW 3.5 mph5.6 kmh 30.22 in1023.4 mb - 0.00 in0.0 mm 0.00 in0.0 mm
04:00 PM 55.9°F13.3°C 48.8°F9.3°C 77% 1.2 mph NW1.9 kmh NW 3.5 mph5.6 kmh 30.22 in1023.4 mb - 0.00 in0.0 mm 0.00 in0.0 mm
04:05 PM 55.8°F13.2°C 49.0°F9.4°C 78% 1.2 mph WSW1.9 kmh WSW 3.5 mph5.6 kmh 30.22 in1023.4 mb - 0.00 in0.0 mm 0.00 in0.0 mm
04:10 PM 55.8°F13.2°C 49.0°F9.4°C 78% 2.3 mph WSW3.7 kmh WSW 3.5 mph5.6 kmh 30.22 in1023.4 mb - 0.00 in0.0 mm 0.00 in0.0 mm
04:15 PM 55.8°F13.2°C 49.0°F9.4°C 78% 1.2 mph WSW1.9 kmh WSW -- 30.22 in1023.4 mb - 0.00 in0.0 mm 0.00 in0.0 mm
04:20 PM 55.8°F13.2°C 49.0°F9.4°C 78% 2.3 mph WSW3.7 kmh WSW 3.5 mph5.6 kmh 30.22 in1023.4 mb - 0.00 in0.0 mm 0.00 in0.0 mm
04:25 PM 55.8°F13.2°C 49.0°F9.4°C 78% 2.3 mph WSW3.7 kmh WSW 3.5 mph5.6 kmh 30.22 in1023.4 mb - 0.00 in0.0 mm 0.00 in0.0 mm
04:30 PM 55.7°F13.2°C 48.9°F9.4°C 78% Calm Calm -- 30.22 in1023.4 mb - 0.00 in0.0 mm 0.00 in0.0 mm
04:35 PM 55.7°F13.2°C 48.9°F9.4°C 78% Calm Calm -- 30.22 in1023.4 mb - 0.00 in0.0 mm 0.00 in0.0 mm
04:40 PM 55.7°F13.2°C 48.9°F9.4°C 78% Calm Calm 3.5 mph5.6 kmh 30.22 in1023.4 mb - 0.00 in0.0 mm 0.00 in0.0 mm
04:45 PM 55.7°F13.2°C 48.9°F9.4°C 78% 2.3 mph NE3.7 kmh NE 3.5 mph5.6 kmh 30.22 in1023.4 mb - 0.00 in0.0 mm 0.00 in0.0 mm
04:50 PM 55.7°F13.2°C 48.9°F9.4°C 78% 2.3 mph NE3.7 kmh NE 3.5 mph5.6 kmh 30.22 in1023.4 mb - 0.00 in0.0 mm 0.00 in0.0 mm
04:55 PM 55.6°F13.1°C 48.9°F9.4°C 78% Calm Calm 3.5 mph5.6 kmh 30.22 in1023.4 mb - 0.00 in0.0 mm 0.00 in0.0 mm
05:00 PM 55.6°F13.1°C 48.8°F9.3°C 78% 1.2 mph SSE1.9 kmh SSE 3.5 mph5.6 kmh 30.22 in1023.4 mb - 0.00 in0.0 mm 0.00 in0.0 mm
05:05 PM 55.5°F13.1°C 48.8°F9.3°C 78% 2.3 mph SW3.7 kmh SW 4.6 mph7.4 kmh 30.22 in1023.4 mb - 0.00 in0.0 mm 0.00 in0.0 mm
05:10 PM 55.5°F13.1°C 48.8°F9.3°C 78% 1.2 mph WSW1.9 kmh WSW 3.5 mph5.6 kmh 30.22 in1023.4 mb - 0.00 in0.0 mm 0.00 in0.0 mm
05:15 PM 55.5°F13.1°C 48.8°F9.3°C 78% 1.2 mph W1.9 kmh W 2.3 mph3.7 kmh 30.23 in1023.7 mb - 0.00 in0.0 mm 0.00 in0.0 mm
05:20 PM 55.6°F13.1°C 48.8°F9.3°C 78% 2.3 mph W3.7 kmh W 5.8 mph9.3 kmh 30.23 in1023.7 mb - 0.00 in0.0 mm 0.00 in0.0 mm
05:25 PM 55.6°F13.1°C 48.8°F9.3°C 78% Calm Calm 1.2 mph1.9 kmh 30.23 in1023.7 mb - 0.00 in0.0 mm 0.00 in0.0 mm
05:30 PM 55.6°F13.1°C 48.8°F9.3°C 78% 1.2 mph SW1.9 kmh SW 1.2 mph1.9 kmh 30.23 in1023.7 mb - 0.00 in0.0 mm 0.00 in0.0 mm
05:35 PM 55.7°F13.2°C 48.9°F9.4°C 78% 1.2 mph SW1.9 kmh SW 1.2 mph1.9 kmh 30.23 in1023.7 mb - 0.00 in0.0 mm 0.00 in0.0 mm
05:40 PM 55.7°F13.2°C 48.9°F9.4°C 78% Calm Calm -- 30.23 in1023.7 mb - 0.00 in0.0 mm 0.00 in0.0 mm
05:45 PM 55.7°F13.2°C 48.9°F9.4°C 78% Calm Calm -- 30.23 in1023.7 mb - 0.00 in0.0 mm 0.00 in0.0 mm
05:50 PM 55.7°F13.2°C 48.9°F9.4°C 78% Calm Calm -- 30.23 in1023.7 mb - 0.00 in0.0 mm 0.00 in0.0 mm
05:55 PM 55.7°F13.2°C 48.9°F9.4°C 78% Calm Calm -- 30.23 in1023.7 mb - 0.00 in0.0 mm 0.00 in0.0 mm
06:00 PM 55.6°F13.1°C 48.8°F9.3°C 78% Calm Calm -- 30.23 in1023.7 mb - 0.00 in0.0 mm 0.00 in0.0 mm
06:05 PM 55.7°F13.2°C 48.9°F9.4°C 78% 4.6 mph WSW7.4 kmh WSW 9.2 mph14.8 kmh 30.23 in1023.7 mb - 0.00 in0.0 mm 0.00 in0.0 mm
06:10 PM 55.8°F13.2°C 49.1°F9.5°C 78% 2.3 mph SW3.7 kmh SW 4.6 mph7.4 kmh 30.23 in1023.7 mb - 0.00 in0.0 mm 0.00 in0.0 mm
06:15 PM 56.0°F13.3°C 49.2°F9.6°C 78% 2.3 mph SW3.7 kmh SW 3.5 mph5.6 kmh 30.23 in1023.7 mb - 0.00 in0.0 mm 0.00 in0.0 mm
06:20 PM 56.0°F13.3°C 49.2°F9.6°C 78% Calm Calm -- 30.23 in1023.7 mb - 0.00 in0.0 mm 0.00 in0.0 mm
06:25 PM 56.0°F13.3°C 49.2°F9.6°C 78% 1.2 mph WSW1.9 kmh WSW 2.3 mph3.7 kmh 30.23 in1023.7 mb - 0.00 in0.0 mm 0.00 in0.0 mm
06:30 PM 56.0°F13.3°C 49.2°F9.6°C 78% Calm Calm 1.2 mph1.9 kmh 30.23 in1023.7 mb - 0.00 in0.0 mm 0.00 in0.0 mm
06:35 PM 56.0°F13.3°C 49.2°F9.6°C 78% Calm Calm -- 30.23 in1023.7 mb - 0.00 in0.0 mm 0.00 in0.0 mm
06:40 PM 56.0°F13.3°C 49.2°F9.6°C 78% Calm Calm -- 30.23 in1023.7 mb - 0.00 in0.0 mm 0.00 in0.0 mm
06:45 PM 55.9°F13.3°C 49.1°F9.5°C 78% 1.2 mph WSW1.9 kmh WSW 2.3 mph3.7 kmh 30.23 in1023.7 mb - 0.00 in0.0 mm 0.00 in0.0 mm
06:50 PM 55.9°F13.3°C 49.1°F9.5°C 78% 1.2 mph WSW1.9 kmh WSW 1.2 mph1.9 kmh 30.23 in1023.7 mb - 0.00 in0.0 mm 0.00 in0.0 mm
06:55 PM 55.9°F13.3°C 49.1°F9.5°C 78% Calm Calm -- 30.23 in1023.7 mb - 0.00 in0.0 mm 0.00 in0.0 mm
07:00 PM 55.9°F13.3°C 49.1°F9.5°C 78% Calm Calm -- 30.23 in1023.7 mb - 0.00 in0.0 mm 0.00 in0.0 mm
07:05 PM 55.9°F13.3°C 49.1°F9.5°C 78% Calm Calm -- 30.23 in1023.7 mb - 0.00 in0.0 mm 0.00 in0.0 mm
07:10 PM 55.9°F13.3°C 49.1°F9.5°C 78% Calm Calm -- 30.23 in1023.7 mb - 0.00 in0.0 mm 0.00 in0.0 mm
07:15 PM 55.9°F13.3°C 49.1°F9.5°C 78% Calm Calm -- 30.23 in1023.7 mb - 0.00 in0.0 mm 0.00 in0.0 mm
07:20 PM 55.8°F13.2°C 49.0°F9.4°C 78% 2.3 mph WNW3.7 kmh WNW 3.5 mph5.6 kmh 30.23 in1023.7 mb - 0.00 in0.0 mm 0.00 in0.0 mm
07:25 PM 55.9°F13.3°C 49.1°F9.5°C 78% 1.2 mph SW1.9 kmh SW 2.3 mph3.7 kmh 30.23 in1023.7 mb - 0.00 in0.0 mm 0.00 in0.0 mm
07:30 PM 55.9°F13.3°C 49.2°F9.6°C 78% Calm Calm -- 30.23 in1023.7 mb - 0.00 in0.0 mm 0.00 in0.0 mm
07:35 PM 55.9°F13.3°C 49.1°F9.5°C 78% 5.8 mph W9.3 kmh W 11.5 mph18.5 kmh 30.23 in1023.7 mb - 0.00 in0.0 mm 0.00 in0.0 mm
07:40 PM 56.2°F13.4°C 49.4°F9.7°C 78% 2.3 mph SSW3.7 kmh SSW 3.5 mph5.6 kmh 30.23 in1023.7 mb - 0.00 in0.0 mm 0.00 in0.0 mm
07:45 PM 56.3°F13.5°C 49.5°F9.7°C 78% 1.2 mph SSW1.9 kmh SSW 2.3 mph3.7 kmh 30.23 in1023.7 mb - 0.00 in0.0 mm 0.00 in0.0 mm
07:50 PM 56.3°F13.5°C 49.5°F9.7°C 78% Calm Calm -- 30.23 in1023.7 mb - 0.00 in0.0 mm 0.00 in0.0 mm
07:55 PM 56.2°F13.4°C 49.4°F9.7°C 78% Calm Calm 1.2 mph1.9 kmh 30.23 in1023.7 mb - 0.00 in0.0 mm 0.00 in0.0 mm
08:00 PM 56.2°F13.4°C 49.4°F9.7°C 78% 1.2 mph NW1.9 kmh NW 2.3 mph3.7 kmh 30.23 in1023.7 mb - 0.00 in0.0 mm 0.00 in0.0 mm
08:05 PM 56.1°F13.4°C 49.3°F9.6°C 78% 3.5 mph W5.6 kmh W 4.6 mph7.4 kmh 30.23 in1023.7 mb - 0.00 in0.0 mm 0.00 in0.0 mm
08:10 PM 56.3°F13.5°C 49.5°F9.7°C 78% 3.5 mph WSW5.6 kmh WSW 6.9 mph11.1 kmh 30.23 in1023.7 mb - 0.00 in0.0 mm 0.00 in0.0 mm
08:15 PM 56.4°F13.6°C 49.6°F9.8°C 78% 1.2 mph WSW1.9 kmh WSW 3.5 mph5.6 kmh 30.23 in1023.7 mb - 0.00 in0.0 mm 0.00 in0.0 mm
08:20 PM 56.4°F13.6°C 49.7°F9.8°C 78% 1.2 mph WSW1.9 kmh WSW 3.5 mph5.6 kmh 30.23 in1023.7 mb - 0.00 in0.0 mm 0.00 in0.0 mm
08:25 PM 56.5°F13.6°C 49.7°F9.8°C 78% 2.3 mph WSW3.7 kmh WSW 8.1 mph13.0 kmh 30.23 in1023.7 mb - 0.00 in0.0 mm 0.00 in0.0 mm
08:30 PM 56.6°F13.7°C 49.8°F9.9°C 78% 1.2 mph WSW1.9 kmh WSW 3.5 mph5.6 kmh 30.23 in1023.7 mb - 0.00 in0.0 mm 0.00 in0.0 mm
08:35 PM 56.6°F13.7°C 49.8°F9.9°C 78% Calm Calm 1.2 mph1.9 kmh 30.23 in1023.7 mb - 0.00 in0.0 mm 0.00 in0.0 mm
08:40 PM 56.7°F13.7°C 49.9°F9.9°C 78% Calm Calm 1.2 mph1.9 kmh 30.23 in1023.7 mb - 0.00 in0.0 mm 0.00 in0.0 mm
08:45 PM 56.7°F13.7°C 49.9°F9.9°C 78% 1.2 mph WSW1.9 kmh WSW 2.3 mph3.7 kmh 30.23 in1023.7 mb - 0.00 in0.0 mm 0.00 in0.0 mm
08:50 PM 56.7°F13.7°C 49.9°F9.9°C 78% Calm Calm 3.5 mph5.6 kmh 30.23 in1023.7 mb - 0.00 in0.0 mm 0.00 in0.0 mm
08:55 PM 56.8°F13.8°C 50.0°F10.0°C 78% Calm Calm -- 30.22 in1023.4 mb - 0.00 in0.0 mm 0.00 in0.0 mm
09:00 PM 56.8°F13.8°C 50.0°F10.0°C 78% 5.8 mph WSW9.3 kmh WSW 9.2 mph14.8 kmh 30.22 in1023.4 mb - 0.00 in0.0 mm 0.00 in0.0 mm
09:05 PM 56.9°F13.8°C 50.1°F10.1°C 78% 2.3 mph WSW3.7 kmh WSW 3.5 mph5.6 kmh 30.22 in1023.4 mb - 0.00 in0.0 mm 0.00 in0.0 mm
09:10 PM 57.0°F13.9°C 50.2°F10.1°C 78% 2.3 mph W3.7 kmh W 3.5 mph5.6 kmh 30.22 in1023.4 mb - 0.00 in0.0 mm 0.00 in0.0 mm
09:15 PM 57.1°F13.9°C 50.3°F10.2°C 78% 3.5 mph SW5.6 kmh SW 5.8 mph9.3 kmh 30.22 in1023.4 mb - 0.00 in0.0 mm 0.00 in0.0 mm
09:20 PM 57.1°F13.9°C 50.3°F10.2°C 78% 3.5 mph SW5.6 kmh SW 6.9 mph11.1 kmh 30.22 in1023.4 mb - 0.00 in0.0 mm 0.00 in0.0 mm
09:25 PM 57.2°F14.0°C 50.4°F10.2°C 78% 6.9 mph WSW11.1 kmh WSW 11.5 mph18.5 kmh 30.22 in1023.4 mb - 0.00 in0.0 mm 0.00 in0.0 mm
09:30 PM 57.3°F14.1°C 50.1°F10.1°C 77% 6.9 mph WSW11.1 kmh WSW 9.2 mph14.8 kmh 30.22 in1023.4 mb - 0.00 in0.0 mm 0.00 in0.0 mm
09:35 PM 57.3°F14.1°C 50.5°F10.3°C 78% 3.5 mph SW5.6 kmh SW 10.4 mph16.7 kmh 30.22 in1023.4 mb - 0.00 in0.0 mm 0.00 in0.0 mm
09:40 PM 57.4°F14.1°C 50.3°F10.2°C 77% 6.9 mph SW11.1 kmh SW 10.4 mph16.7 kmh 30.22 in1023.4 mb - 0.00 in0.0 mm 0.00 in0.0 mm
09:45 PM 57.5°F14.2°C 50.3°F10.2°C 77% 4.6 mph WSW7.4 kmh WSW 8.1 mph13.0 kmh 30.21 in1023.0 mb - 0.00 in0.0 mm 0.00 in0.0 mm
09:50 PM 57.5°F14.2°C 50.3°F10.2°C 77% 2.3 mph SW3.7 kmh SW 3.5 mph5.6 kmh 30.21 in1023.0 mb - 0.00 in0.0 mm 0.00 in0.0 mm
09:55 PM 57.5°F14.2°C 50.3°F10.2°C 77% 4.6 mph WSW7.4 kmh WSW 8.1 mph13.0 kmh 30.22 in1023.4 mb - 0.00 in0.0 mm 0.00 in0.0 mm
10:00 PM 57.6°F14.2°C 50.4°F10.2°C 77% 4.6 mph WSW7.4 kmh WSW 6.9 mph11.1 kmh 30.21 in1023.0 mb - 0.00 in0.0 mm 0.00 in0.0 mm
10:05 PM 57.6°F14.2°C 50.4°F10.2°C 77% 4.6 mph SW7.4 kmh SW 8.1 mph13.0 kmh 30.21 in1023.0 mb - 0.00 in0.0 mm 0.00 in0.0 mm
10:10 PM 57.6°F14.2°C 50.4°F10.2°C 77% 5.8 mph WSW9.3 kmh WSW 6.9 mph11.1 kmh 30.21 in1023.0 mb - 0.00 in0.0 mm 0.00 in0.0 mm
10:15 PM 57.6°F14.2°C 50.4°F10.2°C 77% 4.6 mph WSW7.4 kmh WSW 8.1 mph13.0 kmh 30.21 in1023.0 mb - 0.00 in0.0 mm 0.00 in0.0 mm
10:20 PM 57.6°F14.2°C 50.4°F10.2°C 77% 6.9 mph WSW11.1 kmh WSW 6.9 mph11.1 kmh 30.21 in1023.0 mb - 0.00 in0.0 mm 0.00 in0.0 mm
10:25 PM 57.6°F14.2°C 50.4°F10.2°C 77% 2.3 mph WSW3.7 kmh WSW 6.9 mph11.1 kmh 30.21 in1023.0 mb - 0.00 in0.0 mm 0.00 in0.0 mm
10:30 PM 57.6°F14.2°C 50.4°F10.2°C 77% 2.3 mph W3.7 kmh W 4.6 mph7.4 kmh 30.21 in1023.0 mb - 0.00 in0.0 mm 0.00 in0.0 mm
10:35 PM 57.6°F14.2°C 50.4°F10.2°C 77% 2.3 mph SW3.7 kmh SW 4.6 mph7.4 kmh 30.21 in1023.0 mb - 0.00 in0.0 mm 0.00 in0.0 mm
10:40 PM 57.6°F14.2°C 50.4°F10.2°C 77% 2.3 mph WSW3.7 kmh WSW 4.6 mph7.4 kmh 30.21 in1023.0 mb - 0.00 in0.0 mm 0.00 in0.0 mm
10:45 PM 57.5°F14.2°C 50.4°F10.2°C 77% 4.6 mph WSW7.4 kmh WSW 6.9 mph11.1 kmh 30.20 in1022.7 mb - 0.00 in0.0 mm 0.00 in0.0 mm
10:50 PM 57.5°F14.2°C 50.7°F10.4°C 78% 1.2 mph W1.9 kmh W 2.3 mph3.7 kmh 30.20 in1022.7 mb - 0.00 in0.0 mm 0.00 in0.0 mm
10:55 PM 57.5°F14.2°C 50.7°F10.4°C 78% 3.5 mph SW5.6 kmh SW 8.1 mph13.0 kmh 30.20 in1022.7 mb - 0.00 in0.0 mm 0.00 in0.0 mm
11:00 PM 57.5°F14.2°C 50.7°F10.4°C 78% 2.3 mph WSW3.7 kmh WSW 6.9 mph11.1 kmh 30.20 in1022.7 mb - 0.00 in0.0 mm 0.00 in0.0 mm
11:05 PM 57.5°F14.2°C 50.7°F10.4°C 78% 1.2 mph WSW1.9 kmh WSW 2.3 mph3.7 kmh 30.20 in1022.7 mb - 0.00 in0.0 mm 0.00 in0.0 mm
11:10 PM 57.4°F14.1°C 50.6°F10.3°C 78% 2.3 mph WNW3.7 kmh WNW 3.5 mph5.6 kmh 30.19 in1022.4 mb - 0.00 in0.0 mm 0.00 in0.0 mm
11:15 PM 57.4°F14.1°C 50.6°F10.3°C 78% Calm Calm 2.3 mph3.7 kmh 30.19 in1022.4 mb - 0.00 in0.0 mm 0.00 in0.0 mm
11:20 PM 57.3°F14.1°C 50.5°F10.3°C 78% 3.5 mph WSW5.6 kmh WSW 5.8 mph9.3 kmh 30.19 in1022.4 mb - 0.00 in0.0 mm 0.00 in0.0 mm
11:25 PM 57.4°F14.1°C 50.6°F10.3°C 78% 1.2 mph WSW1.9 kmh WSW 2.3 mph3.7 kmh 30.19 in1022.4 mb - 0.00 in0.0 mm 0.00 in0.0 mm
11:30 PM 57.5°F14.2°C 50.7°F10.4°C 78% 3.5 mph SW5.6 kmh SW 4.6 mph7.4 kmh 30.19 in1022.4 mb - 0.00 in0.0 mm 0.00 in0.0 mm
11:35 PM 57.6°F14.2°C 50.8°F10.4°C 78% 3.5 mph SW5.6 kmh SW 3.5 mph5.6 kmh 30.19 in1022.4 mb - 0.00 in0.0 mm 0.00 in0.0 mm
11:40 PM 57.6°F14.2°C 50.8°F10.4°C 78% 2.3 mph WSW3.7 kmh WSW 6.9 mph11.1 kmh 30.18 in1022.0 mb - 0.00 in0.0 mm 0.00 in0.0 mm
11:45 PM 57.7°F14.3°C 50.9°F10.5°C 78% 4.6 mph WSW7.4 kmh WSW 4.6 mph7.4 kmh 30.18 in1022.0 mb - 0.00 in0.0 mm 0.00 in0.0 mm
11:50 PM 57.7°F14.3°C 50.9°F10.5°C 78% 3.5 mph SW5.6 kmh SW 9.2 mph14.8 kmh 30.18 in1022.0 mb - 0.00 in0.0 mm 0.00 in0.0 mm
11:55 PM 57.7°F14.3°C 50.5°F10.3°C 77% 8.1 mph SW13.0 kmh SW 12.7 mph20.4 kmh 30.18 in1022.0 mb - 0.00 in0.0 mm 0.00 in0.0 mm